Time;durP1;ratioP1;P1;durP2;ratioP2;P2;SDS_P1;SDS_P2;PMS_P1;PMS_P2;Temp;Humidity;BMP_temperature;BMP_pressure;BME280_temperature;BME280_humidity;BME280_pressure;Samples;Min_cycle;Max_cycle;Signal;HPM_P1;HPM_P2
2022/08/25 00:01:20;;;;;;;2.28;1.30;;;27.00;46.80;25.90;101427.00;;;;5080447;28;20059;-67
2022/08/25 00:04:11;;;;;;;2.95;1.40;;;27.00;46.80;25.90;101431.00;;;;5073824;28;20050;-67
2022/08/25 00:06:57;;;;;;;1.85;1.27;;;27.00;46.80;25.90;101423.00;;;;5071467;28;20658;-67
2022/08/25 00:09:44;;;;;;;1.20;1.10;;;27.00;46.80;25.90;101426.00;;;;5079954;28;20037;-67
2022/08/25 00:12:30;;;;;;;2.15;1.67;;;27.00;46.80;25.90;101422.00;;;;5082987;28;20085;-67
2022/08/25 00:15:16;;;;;;;1.83;1.20;;;27.00;46.70;25.90;101428.00;;;;5066280;28;20040;-67
2022/08/25 00:18:02;;;;;;;3.67;1.10;;;27.00;46.70;25.90;101423.00;;;;5055946;28;20044;-67
2022/08/25 00:20:48;;;;;;;1.90;1.10;;;27.00;46.70;25.90;101425.00;;;;5089955;28;20044;-66
2022/08/25 00:23:34;;;;;;;1.98;1.27;;;27.00;46.70;25.90;101425.00;;;;5081102;28;20036;-67
2022/08/25 00:26:22;;;;;;;2.22;1.30;;;27.00;46.70;25.90;101429.00;;;;5083855;28;20047;-67
2022/08/25 00:29:08;;;;;;;2.30;1.15;;;27.00;46.70;25.90;101420.00;;;;5074394;28;20039;-67
2022/08/25 00:31:55;;;;;;;2.63;1.20;;;27.00;46.70;25.90;101422.00;;;;5086069;28;20055;-67
2022/08/25 00:34:41;;;;;;;4.68;1.80;;;27.00;46.70;25.90;101422.00;;;;5062665;28;20035;-67
2022/08/25 00:37:27;;;;;;;1.83;1.30;;;27.00;46.70;25.90;101423.00;;;;5084781;28;20481;-67
2022/08/25 00:40:13;;;;;;;2.35;1.30;;;27.00;46.60;25.90;101424.00;;;;5087359;28;20048;-67
2022/08/25 00:42:59;;;;;;;2.47;1.30;;;27.00;46.60;25.90;101434.00;;;;5076219;28;20047;-67
2022/08/25 00:45:45;;;;;;;3.75;1.30;;;27.00;46.60;25.90;101433.00;;;;5091918;28;20047;-67
2022/08/25 00:48:31;;;;;;;2.40;1.23;;;27.00;46.60;25.90;101438.00;;;;5080411;28;20048;-67
2022/08/25 00:51:45;;;;;;;2.53;1.27;;;27.00;46.60;25.90;101425.00;;;;5085493;28;20423;-67
2022/08/25 00:54:52;;;;;;;1.67;1.17;;;27.00;46.60;25.90;101424.00;;;;5076249;28;20082;-67
2022/08/25 00:57:51;;;;;;;2.30;1.42;;;27.00;46.50;25.90;101426.00;;;;5044643;28;20136;-67
2022/08/25 01:00:40;;;;;;;2.50;1.25;;;27.00;46.50;25.80;101417.00;;;;5075878;28;20040;-67
2022/08/25 01:03:28;;;;;;;1.60;1.25;;;27.00;46.60;25.80;101418.00;;;;5084658;28;20513;-67
2022/08/25 01:06:14;;;;;;;1.45;1.13;;;26.90;46.50;25.80;101429.00;;;;5067789;28;20123;-67
2022/08/25 01:09:00;;;;;;;1.23;1.13;;;27.00;46.50;25.80;101424.00;;;;5076056;28;20538;-67
2022/08/25 01:11:46;;;;;;;2.17;1.20;;;27.00;46.50;25.80;101428.00;;;;5070783;28;20047;-67
2022/08/25 01:14:32;;;;;;;1.35;1.08;;;26.90;46.40;25.80;101421.00;;;;5072177;28;20121;-67
2022/08/25 01:17:19;;;;;;;3.05;1.20;;;27.00;46.50;25.80;101429.00;;;;5057878;28;20075;-66
2022/08/25 01:20:09;;;;;;;2.17;1.42;;;27.00;46.50;25.80;101429.00;;;;5068550;28;20047;-67
2022/08/25 01:23:13;;;;;;;2.10;1.15;;;27.00;46.40;25.80;101426.00;;;;5085149;28;20127;-67
2022/08/25 01:26:18;;;;;;;1.20;1.10;;;27.00;46.40;25.80;101420.00;;;;5090455;28;20051;-67
2022/08/25 01:29:21;;;;;;;2.08;1.30;;;27.00;46.50;25.80;101415.00;;;;5074263;28;20039;-67
2022/08/25 01:32:44;;;;;;;1.60;1.08;;;26.90;46.40;25.80;101416.00;;;;5064043;28;20417;-67
2022/08/25 01:39:38;;;;;;;1.10;0.90;;;26.90;46.40;25.80;101419.00;;;;5080555;28;20035;-67
2022/08/25 01:42:36;;;;;;;1.30;1.08;;;27.00;46.50;25.80;101416.00;;;;5082029;28;20474;-67
2022/08/25 01:48:49;;;;;;;1.08;0.98;;;26.90;46.50;25.80;101427.00;;;;5078983;28;20055;-67
2022/08/25 01:52:22;;;;;;;1.63;1.10;;;26.90;46.50;25.80;101424.00;;;;5070138;28;20454;-67
2022/08/25 01:55:08;;;;;;;2.00;0.95;;;26.90;46.50;25.80;101418.00;;;;5071843;28;20047;-67
2022/08/25 02:01:56;;;;;;;2.55;1.00;;;26.90;46.50;25.80;101415.00;;;;5087625;28;20500;-67
2022/08/25 02:04:42;;;;;;;2.08;1.13;;;27.00;46.50;25.80;101429.00;;;;5089035;28;20051;-67
2022/08/25 02:07:28;;;;;;;2.28;1.38;;;26.90;46.40;25.80;101425.00;;;;5076652;28;20448;-68
2022/08/25 02:10:14;;;;;;;1.48;1.17;;;26.90;46.50;25.80;101425.00;;;;5072050;28;20036;-67
2022/08/25 02:13:00;;;;;;;2.90;1.30;;;26.90;46.50;25.80;101425.00;;;;5085565;28;20499;-67
2022/08/25 02:15:51;;;;;;;1.27;1.17;;;26.80;46.30;25.80;101416.00;;;;5089610;28;20047;-67
2022/08/25 02:18:37;;;;;;;2.03;1.52;;;26.90;46.40;25.80;101421.00;;;;5070753;28;20040;-67
2022/08/25 02:21:24;;;;;;;2.05;1.23;;;26.90;46.40;25.80;101419.00;;;;5084982;28;20036;-67
2022/08/25 02:24:10;;;;;;;2.63;1.10;;;26.90;46.40;25.80;101425.00;;;;5078662;28;20118;-67
2022/08/25 02:26:57;;;;;;;2.67;1.40;;;27.00;46.40;25.80;101420.00;;;;5082905;28;20032;-67
2022/08/25 02:29:43;;;;;;;1.98;1.27;;;26.90;46.30;25.80;101413.00;;;;5078477;28;20047;-67
2022/08/25 02:32:30;;;;;;;1.90;1.30;;;26.90;46.30;25.80;101414.00;;;;5073106;28;20350;-67
2022/08/25 02:35:16;;;;;;;3.22;1.42;;;26.90;46.20;25.80;101414.00;;;;5088316;28;20356;-67
2022/08/25 02:38:02;;;;;;;1.17;1.05;;;27.00;46.20;25.80;101415.00;;;;5076365;28;20054;-67
2022/08/25 02:40:50;;;;;;;1.10;1.00;;;26.90;46.10;25.80;101420.00;;;;5086741;28;20512;-67
2022/08/25 02:43:36;;;;;;;3.60;1.40;;;26.90;45.90;25.80;101420.00;;;;5086883;28;20040;-67
2022/08/25 02:46:23;;;;;;;1.70;1.40;;;27.00;46.00;25.80;101414.00;;;;5068743;28;20477;-67
2022/08/25 02:49:09;;;;;;;1.85;1.33;;;26.90;45.90;25.80;101420.00;;;;5076378;28;20043;-67
2022/08/25 02:51:57;;;;;;;3.08;1.50;;;26.90;45.80;25.80;101423.00;;;;5084617;28;20043;-66
2022/08/25 02:54:43;;;;;;;1.40;1.30;;;26.90;45.80;25.80;101411.00;;;;5090526;28;20561;-67
2022/08/25 02:57:30;;;;;;;2.55;1.60;;;27.00;45.80;25.80;101407.00;;;;5083995;28;20036;-67
2022/08/25 03:00:16;;;;;;;2.03;1.37;;;26.90;45.70;25.80;101418.00;;;;5088649;28;20044;-67
2022/08/25 03:03:03;;;;;;;3.65;1.42;;;26.90;45.70;25.80;101405.00;;;;5071512;28;20088;-67
2022/08/25 03:05:49;;;;;;;2.80;1.55;;;26.90;45.60;25.80;101410.00;;;;5071371;28;20571;-66
2022/08/25 03:08:36;;;;;;;1.50;1.38;;;26.80;45.50;25.80;101410.00;;;;5070052;28;20033;-67
2022/08/25 03:11:24;;;;;;;3.22;1.55;;;26.90;45.60;25.80;101413.00;;;;5084573;28;20044;-66
2022/08/25 03:14:10;;;;;;;1.73;1.50;;;26.80;45.50;25.80;101415.00;;;;5067744;28;20042;-67
2022/08/25 03:16:56;;;;;;;2.67;1.10;;;26.90;45.50;25.80;101416.00;;;;5087577;28;20044;-67
2022/08/25 03:19:42;;;;;;;3.72;1.50;;;26.90;45.40;25.80;101416.00;;;;5084263;28;20098;-67
2022/08/25 03:22:28;;;;;;;1.77;1.55;;;26.90;45.40;25.80;101414.00;;;;5086587;28;20032;-67
2022/08/25 03:28:19;;;;;;;3.97;1.48;;;26.80;45.30;25.70;101406.00;;;;5076397;28;20535;-67
2022/08/25 03:31:05;;;;;;;2.63;1.52;;;26.90;45.40;25.70;101406.00;;;;5088258;28;20243;-67
2022/08/25 03:33:52;;;;;;;2.08;1.58;;;26.90;45.30;25.70;101408.00;;;;5083989;28;20098;-67
2022/08/25 03:36:38;;;;;;;2.28;1.58;;;26.80;45.20;25.70;101407.00;;;;5087095;28;20682;-67
2022/08/25 03:39:25;;;;;;;2.13;1.50;;;26.80;45.30;25.70;101408.00;;;;5076115;28;20039;-67
2022/08/25 03:42:11;;;;;;;2.33;1.77;;;26.90;45.30;25.70;101402.00;;;;5086952;28;20076;-67
2022/08/25 03:44:58;;;;;;;2.40;1.77;;;26.80;45.30;25.70;101400.00;;;;5090486;28;20039;-67
2022/08/25 03:47:47;;;;;;;1.80;1.52;;;26.80;45.20;25.70;101387.00;;;;5069519;28;20560;-67
2022/08/25 03:50:33;;;;;;;1.80;1.67;;;26.80;45.60;25.70;101380.00;;;;5096205;28;20508;-66
2022/08/25 03:53:19;;;;;;;1.83;1.50;;;26.70;45.10;25.70;101383.00;;;;5072214;28;20116;-67
2022/08/25 03:56:05;;;;;;;3.20;1.92;;;26.80;45.20;25.70;101376.00;;;;5071578;28;20487;-66
2022/08/25 03:58:52;;;;;;;6.75;1.92;;;26.80;45.10;25.70;101374.00;;;;5086666;28;20044;-67
2022/08/25 04:01:40;;;;;;;4.18;1.80;;;26.80;45.20;25.70;101368.00;;;;5037044;28;20047;-66
2022/08/25 04:04:26;;;;;;;3.05;1.50;;;26.80;45.10;25.70;101375.00;;;;5063082;28;20040;-66
2022/08/25 04:07:12;;;;;;;6.03;2.15;;;26.80;45.10;25.70;101364.00;;;;5086171;28;20401;-67
2022/08/25 04:09:58;;;;;;;2.15;1.67;;;26.80;45.10;25.70;101365.00;;;;5087626;28;20047;-67
2022/08/25 04:12:44;;;;;;;3.20;1.85;;;26.80;45.10;25.70;101370.00;;;;5084196;28;20495;-67
2022/08/25 04:15:30;;;;;;;4.10;1.95;;;26.80;45.10;25.70;101365.00;;;;5085899;28;20040;-67
2022/08/25 04:18:16;;;;;;;2.90;1.90;;;26.80;45.10;25.70;101371.00;;;;5067558;28;20481;-67
2022/08/25 04:21:03;;;;;;;3.55;2.08;;;26.90;45.20;25.70;101372.00;;;;5088523;28;20036;-67
2022/08/25 04:23:51;;;;;;;2.67;1.88;;;26.80;45.20;25.70;101374.00;;;;5062489;28;20457;-67
2022/08/25 04:26:45;;;;;;;3.00;1.70;;;26.80;45.10;25.70;101372.00;;;;5074670;28;20051;-66
2022/08/25 04:29:31;;;;;;;5.47;2.05;;;26.80;45.10;25.70;101373.00;;;;5066888;28;20093;-67
2022/08/25 04:32:18;;;;;;;3.83;1.67;;;26.80;45.20;25.70;101371.00;;;;5086693;28;20036;-67
2022/08/25 04:35:05;;;;;;;3.80;1.90;;;26.80;45.20;25.70;101366.00;;;;5081776;28;20077;-67
2022/08/25 04:37:51;;;;;;;4.67;2.07;;;26.80;45.20;25.70;101364.00;;;;5081360;28;20075;-66
2022/08/25 04:40:37;;;;;;;5.07;1.80;;;26.80;45.20;25.70;101366.00;;;;5077923;28;20321;-66
2022/08/25 04:43:23;;;;;;;3.40;1.85;;;26.80;45.30;25.70;101364.00;;;;5083399;28;20417;-67
2022/08/25 04:46:21;;;;;;;3.42;1.75;;;26.80;45.20;25.70;101361.00;;;;5086730;28;20040;-66
2022/08/25 04:49:07;;;;;;;3.08;1.70;;;26.70;45.20;25.70;101358.00;;;;5069491;28;20044;-67
2022/08/25 04:51:53;;;;;;;2.45;1.80;;;26.80;45.20;25.70;101359.00;;;;5087651;28;20105;-67
2022/08/25 04:54:39;;;;;;;4.85;2.42;;;26.80;45.20;25.70;101361.00;;;;5086092;28;20079;-67
2022/08/25 04:57:25;;;;;;;4.53;1.90;;;26.80;45.20;25.70;101346.00;;;;5081959;28;20142;-66
2022/08/25 05:00:12;;;;;;;10.07;2.10;;;26.80;45.20;25.70;101350.00;;;;5084720;28;20094;-66
2022/08/25 05:02:58;;;;;;;10.63;2.15;;;26.80;45.00;25.70;101358.00;;;;5085077;28;20669;-66
2022/08/25 05:05:44;;;;;;;6.00;2.30;;;26.80;44.90;25.70;101363.00;;;;5074258;28;20040;-66
2022/08/25 05:08:31;;;;;;;11.93;2.35;;;26.80;45.00;25.70;101363.00;;;;5086358;28;20504;-66
2022/08/25 05:11:17;;;;;;;2.90;1.92;;;26.70;45.00;25.70;101360.00;;;;5069968;28;20115;-66
2022/08/25 05:14:04;;;;;;;5.73;1.90;;;26.80;45.10;25.70;101357.00;;;;5071588;28;20059;-66
2022/08/25 05:16:50;;;;;;;6.47;2.10;;;26.80;45.10;25.70;101349.00;;;;5068537;28;20040;-66
2022/08/25 05:19:36;;;;;;;5.90;1.80;;;26.70;45.10;25.70;101348.00;;;;5078097;28;20082;-66
2022/08/25 05:22:22;;;;;;;2.72;1.77;;;26.80;45.20;25.70;101346.00;;;;5080258;28;20070;-66
2022/08/25 05:25:08;;;;;;;4.90;1.90;;;26.80;45.20;25.70;101362.00;;;;5087793;28;20040;-66
2022/08/25 05:27:54;;;;;;;4.70;1.83;;;26.80;45.30;25.70;101364.00;;;;5078878;28;20067;-66
2022/08/25 05:30:41;;;;;;;4.13;1.52;;;26.70;45.20;25.70;101363.00;;;;5084273;28;20089;-66
2022/08/25 05:33:27;;;;;;;2.30;1.63;;;26.80;45.40;25.70;101370.00;;;;5085143;28;20040;-66
2022/08/25 05:36:14;;;;;;;3.53;1.90;;;26.80;45.40;25.70;101373.00;;;;5054838;28;20032;-67
2022/08/25 05:39:00;;;;;;;4.05;1.80;;;26.80;45.40;25.70;101364.00;;;;5072045;28;20058;-67
2022/08/25 05:41:46;;;;;;;5.70;1.80;;;26.80;45.40;25.70;101361.00;;;;5081554;28;20048;-67
2022/08/25 05:44:32;;;;;;;4.75;1.70;;;26.80;45.40;25.70;101367.00;;;;5074953;28;20041;-66
2022/08/25 05:47:18;;;;;;;3.53;1.80;;;26.80;45.40;25.70;101363.00;;;;5079461;28;20044;-66
2022/08/25 05:50:06;;;;;;;3.47;1.60;;;26.80;45.40;25.70;101351.00;;;;5077341;28;20037;-66
2022/08/25 05:52:52;;;;;;;7.78;1.70;;;26.70;45.30;25.70;101362.00;;;;5079358;28;20052;-66
2022/08/25 05:55:43;;;;;;;4.97;1.90;;;26.80;45.40;25.70;101362.00;;;;5063996;28;20036;-67
2022/08/25 05:58:30;;;;;;;3.35;2.20;;;26.80;45.40;25.70;101365.00;;;;5069021;28;20555;-67
2022/08/25 06:04:27;;;;;;;2.72;1.95;;;26.80;45.50;25.70;101347.00;;;;5082142;28;20040;-67
2022/08/25 06:07:13;;;;;;;1.63;1.40;;;26.80;45.50;25.70;101349.00;;;;5086972;28;20044;-67
2022/08/25 06:09:59;;;;;;;2.38;2.17;;;26.80;45.50;25.70;101343.00;;;;5086881;28;20496;-67
2022/08/25 06:12:46;;;;;;;3.53;1.67;;;26.80;45.50;25.70;101351.00;;;;5080912;28;20093;-67
2022/08/25 06:15:32;;;;;;;1.80;1.63;;;26.80;45.60;25.70;101356.00;;;;5085978;28;20228;-67
2022/08/25 06:18:18;;;;;;;1.88;1.77;;;26.80;45.60;25.70;101355.00;;;;5069708;28;20058;-67
2022/08/25 06:21:12;;;;;;;2.03;1.83;;;26.80;45.60;25.70;101352.00;;;;5078149;28;20032;-67
2022/08/25 06:23:58;;;;;;;3.72;1.83;;;26.80;45.60;25.70;101355.00;;;;5058571;28;20040;-66
2022/08/25 06:26:45;;;;;;;3.20;1.95;;;26.80;45.60;25.70;101358.00;;;;5086708;28;20656;-66
2022/08/25 06:29:31;;;;;;;2.03;1.75;;;26.80;45.60;25.70;101358.00;;;;5089696;28;20039;-65
2022/08/25 06:32:17;;;;;;;1.63;1.42;;;26.80;45.70;25.70;101349.00;;;;5078347;28;20477;-65
2022/08/25 06:35:09;;;;;;;2.88;1.60;;;26.80;45.70;25.70;101344.00;;;;5102105;28;20050;-66
2022/08/25 06:37:55;;;;;;;2.60;1.60;;;26.80;45.70;25.70;101351.00;;;;5054354;28;20451;-66
2022/08/25 06:40:41;;;;;;;3.20;1.75;;;26.80;45.70;25.70;101356.00;;;;5087644;28;20035;-65
2022/08/25 06:43:27;;;;;;;3.17;2.10;;;26.80;45.70;25.70;101356.00;;;;5078407;28;20401;-66
2022/08/25 06:46:25;;;;;;;3.00;2.10;;;26.80;45.70;25.70;101360.00;;;;5080783;28;20036;-64
2022/08/25 06:49:11;;;;;;;2.55;1.48;;;26.80;45.80;25.70;101358.00;;;;5084669;28;20115;-69
2022/08/25 06:51:58;;;;;;;2.08;1.55;;;26.80;45.90;25.70;101349.00;;;;5078482;28;20051;-64
2022/08/25 06:54:44;;;;;;;2.65;2.10;;;26.80;45.90;25.70;101350.00;;;;5083261;28;20032;-64
2022/08/25 06:57:32;;;;;;;3.15;1.60;;;26.80;46.00;25.70;101363.00;;;;5082365;28;20050;-64
2022/08/25 07:00:19;;;;;;;1.75;1.65;;;26.80;46.00;25.70;101364.00;;;;5092079;28;20154;-64
2022/08/25 07:03:05;;;;;;;3.08;1.80;;;26.80;46.10;25.70;101367.00;;;;5087399;28;20044;-64
2022/08/25 07:05:55;;;;;;;3.22;1.92;;;26.80;46.10;25.70;101363.00;;;;5094260;28;20040;-63
2022/08/25 07:08:41;;;;;;;3.40;2.00;;;26.80;46.20;25.70;101360.00;;;;5089903;28;20041;-64
2022/08/25 07:11:28;;;;;;;3.25;2.00;;;26.80;46.20;25.70;101359.00;;;;5070398;28;20058;-64
2022/08/25 07:14:16;;;;;;;3.25;2.15;;;26.80;46.30;25.70;101351.00;;;;5088655;28;20465;-64
2022/08/25 07:17:02;;;;;;;2.38;1.90;;;26.80;46.30;25.70;101351.00;;;;5073355;28;20036;-65
2022/08/25 07:19:49;;;;;;;2.85;1.83;;;26.80;46.30;25.70;101361.00;;;;5085511;28;20040;-64
2022/08/25 07:22:35;;;;;;;2.15;1.85;;;26.80;46.30;25.70;101352.00;;;;5074035;28;20043;-64
2022/08/25 07:25:21;;;;;;;3.63;1.77;;;26.80;46.30;25.70;101361.00;;;;5098200;28;20040;-64
2022/08/25 07:28:07;;;;;;;3.08;1.80;;;26.90;46.30;25.70;101363.00;;;;5084610;28;20040;-64
2022/08/25 07:30:53;;;;;;;3.92;2.00;;;26.90;46.30;25.70;101360.00;;;;5089788;28;20052;-65
2022/08/25 07:35:13;;;;;;;2.20;1.75;;;26.80;46.30;25.70;101364.00;;;;5082877;28;20039;-64
2022/08/25 07:36:45;;;;;;;2.47;1.85;;;26.80;46.30;25.70;101365.00;;;;5084285;28;20134;-64
2022/08/25 07:39:32;;;;;;;3.40;1.77;;;26.90;46.30;25.70;101364.00;;;;5080396;28;20039;-64
2022/08/25 07:42:18;;;;;;;2.50;1.80;;;26.80;46.30;25.70;101365.00;;;;5073871;28;20051;-64
2022/08/25 07:45:06;;;;;;;2.72;1.67;;;26.80;46.30;25.70;101371.00;;;;5092938;28;20046;-64
2022/08/25 07:47:52;;;;;;;4.55;1.40;;;26.80;46.30;25.70;101372.00;;;;5060496;28;20040;-64
2022/08/25 07:50:46;;;;;;;2.00;1.80;;;26.90;46.40;25.70;101368.00;;;;5099992;28;20086;-64
2022/08/25 07:53:32;;;;;;;2.03;1.67;;;26.80;46.40;25.70;101373.00;;;;5080487;28;20554;-64
2022/08/25 07:56:18;;;;;;;3.38;1.80;;;26.80;46.40;25.70;101364.00;;;;5085434;28;20036;-64
2022/08/25 07:59:04;;;;;;;2.25;1.98;;;26.80;46.40;25.70;101368.00;;;;5086275;28;20048;-64
2022/08/25 08:01:50;;;;;;;3.10;2.33;;;26.80;46.50;25.70;101368.00;;;;5058386;28;20044;-64
2022/08/25 08:04:37;;;;;;;2.97;2.03;;;26.80;46.50;25.70;101365.00;;;;5071421;28;20040;-64
2022/08/25 08:07:24;;;;;;;2.72;1.98;;;26.90;46.60;25.70;101365.00;;;;5080117;28;20421;-65
2022/08/25 08:10:13;;;;;;;3.17;2.08;;;26.80;46.60;25.70;101352.00;;;;5072189;28;20047;-72
2022/08/25 08:12:59;;;;;;;2.40;1.90;;;26.80;46.70;25.80;101356.00;;;;5072862;28;20102;-70
2022/08/25 08:15:45;;;;;;;2.63;1.70;;;26.90;46.90;25.80;101352.00;;;;5074149;28;20080;-66
2022/08/25 08:18:31;;;;;;;4.50;2.30;;;26.80;46.80;25.70;101345.00;;;;5077787;28;20459;-66
2022/08/25 08:21:21;;;;;;;2.17;1.83;;;26.80;46.80;25.80;101347.00;;;;5081038;28;20032;-66
2022/08/25 08:24:07;;;;;;;3.22;2.20;;;26.80;46.90;25.70;101352.00;;;;5067979;28;20108;-66
2022/08/25 08:26:57;;;;;;;2.83;2.08;;;26.80;46.80;25.70;101358.00;;;;5069395;28;20044;-67
2022/08/25 08:29:43;;;;;;;1.90;1.70;;;26.80;46.90;25.80;101355.00;;;;5077376;28;20081;-66
2022/08/25 08:32:29;;;;;;;3.28;2.15;;;26.80;47.70;25.80;101347.00;;;;5092282;28;20139;-67
2022/08/25 08:35:17;;;;;;;4.78;2.10;;;26.80;47.00;25.80;101335.00;;;;5081304;28;20414;-67
2022/08/25 08:38:03;;;;;;;2.65;2.17;;;26.80;47.00;25.80;101334.00;;;;5065021;28;20127;-67
2022/08/25 08:44:32;;;;;;;3.25;1.95;;;26.80;47.10;25.70;101326.00;;;;5081581;28;20050;-67
2022/08/25 08:47:39;;;;;;;2.67;1.80;;;26.80;47.20;25.70;101325.00;;;;5066922;28;20048;-67
2022/08/25 08:50:36;;;;;;;2.38;1.98;;;26.90;47.20;25.70;101319.00;;;;5068067;28;20028;-67
2022/08/25 08:53:26;;;;;;;3.22;2.17;;;26.80;47.20;25.70;101330.00;;;;5073362;28;20151;-67
2022/08/25 08:56:28;;;;;;;2.10;1.85;;;26.80;47.30;25.70;101323.00;;;;5068295;28;20405;-67
2022/08/25 08:59:24;;;;;;;2.10;1.90;;;26.80;47.30;25.70;101320.00;;;;5067236;28;20131;-67
2022/08/25 09:02:34;;;;;;;5.20;2.40;;;26.80;47.30;25.70;101320.00;;;;5060524;28;20044;-67
2022/08/25 09:05:22;;;;;;;2.13;1.92;;;26.80;47.30;25.70;101312.00;;;;5072560;28;20071;-67
2022/08/25 09:08:11;;;;;;;2.55;1.90;;;26.80;47.30;25.70;101304.00;;;;5071755;28;20036;-67
2022/08/25 09:11:06;;;;;;;2.30;2.10;;;26.90;47.50;25.70;101303.00;;;;5058427;28;20032;-67
2022/08/25 09:14:11;;;;;;;1.88;1.77;;;26.80;47.40;25.70;101306.00;;;;5069655;28;20052;-67
2022/08/25 09:17:58;;;;;;;2.92;2.20;;;26.90;47.60;25.70;101303.00;;;;5066335;28;20413;-67
2022/08/25 09:21:37;;;;;;;3.60;2.05;;;26.80;47.60;25.70;101307.00;;;;5079118;28;20395;-67
2022/08/25 09:24:46;;;;;;;5.03;2.10;;;26.80;47.40;25.70;101302.00;;;;5070108;28;20310;-67
2022/08/25 09:27:57;;;;;;;3.35;2.25;;;26.80;47.30;25.70;101291.00;;;;5071661;28;20056;-67
2022/08/25 09:31:03;;;;;;;2.95;2.53;;;26.80;47.30;25.70;101293.00;;;;5074299;28;20138;-67
2022/08/25 09:33:52;;;;;;;1.92;1.73;;;26.80;47.40;25.70;101288.00;;;;5075043;28;20040;-67
2022/08/25 09:36:38;;;;;;;10.48;2.55;;;26.80;47.40;25.70;101285.00;;;;5067778;28;20490;-67
2022/08/25 09:39:24;;;;;;;3.58;1.90;;;26.80;47.40;25.70;101289.00;;;;5087503;28;20113;-67
2022/08/25 09:42:10;;;;;;;3.88;2.28;;;26.80;47.40;25.70;101283.00;;;;5074498;28;20040;-67
2022/08/25 09:44:56;;;;;;;3.45;2.97;;;26.80;47.40;25.70;101272.00;;;;5066472;28;20032;-67
2022/08/25 09:47:43;;;;;;;2.88;2.50;;;26.80;47.40;25.70;101271.00;;;;5076538;28;20155;-67
2022/08/25 09:50:31;;;;;;;4.22;2.28;;;26.80;47.40;25.70;101270.00;;;;5077981;28;20119;-67
2022/08/25 09:53:17;;;;;;;2.40;2.13;;;26.80;47.40;25.70;101260.00;;;;5066148;28;20038;-67
2022/08/25 09:56:05;;;;;;;3.60;2.53;;;26.80;47.40;25.70;101264.00;;;;5065269;28;20051;-67
2022/08/25 09:58:51;;;;;;;3.90;2.47;;;26.80;47.30;25.70;101257.00;;;;5058273;28;20048;-67
2022/08/25 10:01:51;;;;;;;3.75;2.20;;;26.80;47.40;25.70;101251.00;;;;5063560;28;20034;-67
2022/08/25 10:04:38;;;;;;;2.67;2.13;;;26.90;47.60;25.70;101248.00;;;;5070938;28;20090;-67
2022/08/25 10:07:37;;;;;;;2.85;2.13;;;26.80;47.40;25.70;101248.00;;;;5059308;28;20071;-67
2022/08/25 10:10:35;;;;;;;2.53;2.22;;;26.80;47.50;25.70;101250.00;;;;5073146;28;20039;-67
2022/08/25 10:13:33;;;;;;;2.60;2.38;;;26.80;47.50;25.70;101243.00;;;;5057340;28;20135;-67
2022/08/25 10:16:33;;;;;;;6.20;2.55;;;26.80;47.40;25.70;101231.00;;;;5068622;28;20171;-67
2022/08/25 10:19:28;;;;;;;3.30;2.17;;;26.90;47.50;25.70;101230.00;;;;5084405;28;20032;-67
2022/08/25 10:22:33;;;;;;;3.72;2.15;;;26.80;47.40;25.70;101224.00;;;;5081959;28;20031;-67
2022/08/25 10:25:28;;;;;;;2.90;2.60;;;26.90;47.50;25.70;101221.00;;;;5086030;28;20481;-67
2022/08/25 10:28:25;;;;;;;3.45;2.60;;;26.90;47.70;25.70;101215.00;;;;5070810;28;20461;-67
2022/08/25 10:31:16;;;;;;;4.30;2.30;;;26.90;47.60;25.70;101203.00;;;;5066795;28;20482;-67
2022/08/25 10:34:43;;;;;;;2.90;2.50;;;26.80;47.50;25.80;101192.00;;;;5070856;28;20070;-67
2022/08/25 10:37:53;;;;;;;4.60;2.75;;;26.80;47.60;25.80;101198.00;;;;5074670;28;20481;-67
2022/08/25 10:40:46;;;;;;;3.83;2.85;;;26.90;48.40;25.70;101186.00;;;;5071298;28;20036;-68
2022/08/25 10:43:43;;;;;;;3.90;2.88;;;26.80;48.00;25.80;101181.00;;;;5074718;28;20040;-67
2022/08/25 10:46:50;;;;;;;3.35;2.55;;;26.90;47.70;25.80;101178.00;;;;5071276;28;20123;-67
2022/08/25 10:49:49;;;;;;;3.72;2.50;;;26.90;47.60;25.80;101175.00;;;;5074130;28;20489;-67
2022/08/25 10:53:12;;;;;;;3.03;2.50;;;27.00;47.60;25.80;101164.00;;;;5070154;28;20076;-67
2022/08/25 10:56:47;;;;;;;3.42;2.72;;;26.90;47.60;25.80;101164.00;;;;5050710;28;20044;-67
2022/08/25 10:59:45;;;;;;;4.95;3.03;;;26.90;47.70;25.80;101160.00;;;;5086135;28;20044;-67
2022/08/25 11:02:51;;;;;;;3.40;2.63;;;27.00;47.70;25.80;101164.00;;;;5078096;28;20445;-67
2022/08/25 11:05:48;;;;;;;2.53;2.25;;;26.90;47.60;25.80;101164.00;;;;5067206;28;20028;-68
2022/08/25 11:08:56;;;;;;;3.25;2.35;;;27.00;47.60;25.80;101167.00;;;;5047941;28;20047;-67
2022/08/25 11:12:11;;;;;;;6.03;2.80;;;26.90;47.50;25.80;101161.00;;;;5067212;28;20038;-67
2022/08/25 11:15:01;;;;;;;3.53;2.47;;;26.90;47.50;25.80;101164.00;;;;5069338;28;20039;-67
2022/08/25 11:18:05;;;;;;;2.92;2.33;;;27.00;47.60;25.80;101159.00;;;;5056250;28;20135;-67
2022/08/25 11:21:05;;;;;;;3.70;2.80;;;26.90;47.50;25.80;101156.00;;;;5067408;28;20048;-67
2022/08/25 11:24:04;;;;;;;2.88;2.42;;;27.00;47.60;25.80;101152.00;;;;5072467;28;20052;-67
2022/08/25 11:26:55;;;;;;;3.08;2.50;;;27.00;47.60;25.80;101148.00;;;;5070391;28;20405;-67
2022/08/25 11:29:50;;;;;;;3.40;2.47;;;27.00;47.50;25.80;101158.00;;;;5068269;28;20029;-67
2022/08/25 11:32:37;;;;;;;3.00;2.30;;;27.00;47.50;25.80;101156.00;;;;5078131;28;20028;-67
2022/08/25 11:35:32;;;;;;;3.08;2.58;;;27.00;47.50;25.80;101148.00;;;;5079627;28;20036;-67
2022/08/25 11:38:49;;;;;;;3.15;2.60;;;27.00;47.50;25.80;101152.00;;;;5069430;28;20040;-67
2022/08/25 11:42:17;;;;;;;2.90;2.58;;;27.00;47.60;25.80;101149.00;;;;5070479;28;20048;-67
2022/08/25 11:45:53;;;;;;;3.58;2.55;;;27.00;47.50;25.80;101153.00;;;;5075050;28;20090;-67
2022/08/25 11:48:58;;;;;;;3.80;2.47;;;27.00;47.40;25.80;101151.00;;;;5071302;28;20051;-67
2022/08/25 11:51:48;;;;;;;3.00;2.55;;;26.90;47.50;25.80;101144.00;;;;5078751;28;20040;-67
2022/08/25 11:54:36;;;;;;;4.30;2.63;;;27.00;47.70;25.80;101146.00;;;;5087024;28;20410;-67
2022/08/25 11:57:24;;;;;;;;;;;27.00;47.60;25.80;101146.00;;;;5075295;28;20129;-68
2022/08/25 12:00:39;;;;;;;3.38;2.60;;;27.00;47.50;25.80;101143.00;;;;5082115;28;20226;-67
2022/08/25 12:03:34;;;;;;;2.92;2.50;;;27.00;47.40;25.80;101140.00;;;;5057658;28;20119;-67
2022/08/25 12:06:29;;;;;;;4.10;2.88;;;27.10;47.50;25.80;101132.00;;;;5089727;28;20399;-67
2022/08/25 12:09:17;;;;;;;3.78;2.92;;;27.00;47.50;25.80;101136.00;;;;5076352;28;20501;-67
2022/08/25 12:12:40;;;;;;;3.42;2.78;;;27.00;47.50;25.80;101129.00;;;;5069719;28;20101;-67
2022/08/25 12:15:41;;;;;;;5.45;2.78;;;27.00;47.50;25.80;101130.00;;;;5087556;28;20040;-67
2022/08/25 12:18:30;;;;;;;4.70;2.42;;;27.00;47.50;25.80;101131.00;;;;5084174;28;20569;-67
2022/08/25 12:21:28;;;;;;;3.28;2.97;;;27.00;47.50;25.80;101127.00;;;;5081953;28;20044;-67
2022/08/25 12:24:16;;;;;;;3.58;2.70;;;27.00;47.50;25.80;101125.00;;;;5069725;28;20043;-67
2022/08/25 12:27:02;;;;;;;3.40;2.92;;;27.00;47.50;25.90;101124.00;;;;5066999;28;20523;-67
2022/08/25 12:29:51;;;;;;;3.20;2.47;;;27.10;47.50;25.90;101124.00;;;;5060347;28;20120;-67
2022/08/25 12:33:20;;;;;;;3.85;2.85;;;27.10;47.50;25.90;101127.00;;;;5063404;28;20063;-67
2022/08/25 12:36:07;;;;;;;2.75;2.53;;;27.00;47.40;25.90;101121.00;;;;5082240;28;20043;-67
2022/08/25 12:38:53;;;;;;;5.20;3.03;;;27.10;47.40;25.90;101122.00;;;;5058739;28;20385;-67
2022/08/25 12:42:04;;;;;;;3.78;2.47;;;27.10;47.40;25.90;101109.00;;;;5066373;28;20090;-67
2022/08/25 12:45:24;;;;;;;3.20;2.67;;;27.10;47.40;25.90;101113.00;;;;5059196;28;20050;-67
2022/08/25 12:48:26;;;;;;;3.55;2.80;;;27.10;47.30;25.90;101116.00;;;;5078917;28;20088;-66
2022/08/25 12:51:17;;;;;;;4.07;2.72;;;27.10;47.30;25.90;101114.00;;;;5087147;28;20046;-66
2022/08/25 12:54:59;;;;;;;3.22;2.70;;;27.10;47.40;25.90;101096.00;;;;5072551;28;20032;-66
2022/08/25 12:57:56;;;;;;;4.18;2.53;;;27.10;47.40;25.90;101109.00;;;;5071844;28;20493;-66